sensor_id;sensor_type;location;lat;lon;timestamp;P1;durP1;ratioP1;P2;durP2;ratioP2
80539;SDS011;69869;48.036;15.780;2024-01-25T00:01:25;4.40;;;1.30;;
80539;SDS011;69869;48.036;15.780;2024-01-25T00:03:50;3.13;;;1.30;;
80539;SDS011;69869;48.036;15.780;2024-01-25T00:06:16;2.22;;;0.95;;
80539;SDS011;69869;48.036;15.780;2024-01-25T00:08:42;2.60;;;0.90;;
80539;SDS011;69869;48.036;15.780;2024-01-25T00:11:08;2.65;;;1.15;;
80539;SDS011;69869;48.036;15.780;2024-01-25T00:13:34;2.83;;;1.00;;
80539;SDS011;69869;48.036;15.780;2024-01-25T00:16:01;1.95;;;1.00;;
80539;SDS011;69869;48.036;15.780;2024-01-25T00:18:26;2.97;;;1.10;;
80539;SDS011;69869;48.036;15.780;2024-01-25T00:20:54;2.75;;;1.10;;
80539;SDS011;69869;48.036;15.780;2024-01-25T00:23:20;3.78;;;1.10;;
80539;SDS011;69869;48.036;15.780;2024-01-25T00:25:46;6.05;;;1.20;;
80539;SDS011;69869;48.036;15.780;2024-01-25T00:28:11;1.73;;;1.00;;
80539;SDS011;69869;48.036;15.780;2024-01-25T00:30:38;2.58;;;1.08;;
80539;SDS011;69869;48.036;15.780;2024-01-25T00:33:04;2.75;;;1.00;;
80539;SDS011;69869;48.036;15.780;2024-01-25T00:35:30;2.33;;;1.00;;
80539;SDS011;69869;48.036;15.780;2024-01-25T00:37:56;4.55;;;1.20;;
80539;SDS011;69869;48.036;15.780;2024-01-25T00:40:22;2.42;;;1.08;;
80539;SDS011;69869;48.036;15.780;2024-01-25T00:42:48;2.58;;;1.00;;
80539;SDS011;69869;48.036;15.780;2024-01-25T00:45:18;3.97;;;1.50;;
80539;SDS011;69869;48.036;15.780;2024-01-25T00:47:47;2.95;;;1.05;;
80539;SDS011;69869;48.036;15.780;2024-01-25T00:50:14;2.88;;;1.13;;
80539;SDS011;69869;48.036;15.780;2024-01-25T00:52:42;3.35;;;1.10;;
80539;SDS011;69869;48.036;15.780;2024-01-25T00:55:08;2.55;;;1.08;;
80539;SDS011;69869;48.036;15.780;2024-01-25T00:57:35;2.78;;;0.98;;
80539;SDS011;69869;48.036;15.780;2024-01-25T01:00:01;2.88;;;1.10;;
80539;SDS011;69869;48.036;15.780;2024-01-25T01:02:29;2.03;;;1.20;;
80539;SDS011;69869;48.036;15.780;2024-01-25T01:04:59;2.25;;;1.00;;
80539;SDS011;69869;48.036;15.780;2024-01-25T01:07:25;2.65;;;1.10;;
80539;SDS011;69869;48.036;15.780;2024-01-25T01:09:51;3.85;;;1.17;;
80539;SDS011;69869;48.036;15.780;2024-01-25T01:12:17;1.80;;;0.90;;
80539;SDS011;69869;48.036;15.780;2024-01-25T01:14:42;2.33;;;0.88;;
80539;SDS011;69869;48.036;15.780;2024-01-25T01:17:08;2.35;;;1.10;;
80539;SDS011;69869;48.036;15.780;2024-01-25T01:19:34;3.22;;;1.23;;
80539;SDS011;69869;48.036;15.780;2024-01-25T01:22:00;3.10;;;1.00;;
80539;SDS011;69869;48.036;15.780;2024-01-25T01:24:25;3.00;;;1.10;;
80539;SDS011;69869;48.036;15.780;2024-01-25T01:26:51;1.58;;;0.90;;
80539;SDS011;69869;48.036;15.780;2024-01-25T01:29:17;4.50;;;1.23;;
80539;SDS011;69869;48.036;15.780;2024-01-25T01:31:43;2.25;;;0.93;;
80539;SDS011;69869;48.036;15.780;2024-01-25T01:34:09;2.75;;;1.33;;
80539;SDS011;69869;48.036;15.780;2024-01-25T01:36:34;3.55;;;1.20;;
80539;SDS011;69869;48.036;15.780;2024-01-25T01:39:00;1.80;;;1.05;;
80539;SDS011;69869;48.036;15.780;2024-01-25T01:41:26;3.15;;;1.30;;
80539;SDS011;69869;48.036;15.780;2024-01-25T01:43:52;2.33;;;1.10;;
80539;SDS011;69869;48.036;15.780;2024-01-25T01:46:32;2.90;;;1.30;;
80539;SDS011;69869;48.036;15.780;2024-01-25T01:49:05;2.25;;;1.00;;
80539;SDS011;69869;48.036;15.780;2024-01-25T01:51:32;3.20;;;0.93;;
80539;SDS011;69869;48.036;15.780;2024-01-25T01:53:59;2.10;;;1.00;;
80539;SDS011;69869;48.036;15.780;2024-01-25T01:56:27;1.40;;;0.82;;
80539;SDS011;69869;48.036;15.780;2024-01-25T01:58:59;0.93;;;0.82;;
80539;SDS011;69869;48.036;15.780;2024-01-25T02:01:26;2.20;;;1.08;;
80539;SDS011;69869;48.036;15.780;2024-01-25T02:03:53;1.67;;;0.90;;
80539;SDS011;69869;48.036;15.780;2024-01-25T02:06:19;2.08;;;1.17;;
80539;SDS011;69869;48.036;15.780;2024-01-25T02:08:48;3.90;;;1.25;;
80539;SDS011;69869;48.036;15.780;2024-01-25T02:11:23;1.90;;;0.90;;
80539;SDS011;69869;48.036;15.780;2024-01-25T02:13:49;2.15;;;1.02;;
80539;SDS011;69869;48.036;15.780;2024-01-25T02:16:15;1.95;;;0.90;;
80539;SDS011;69869;48.036;15.780;2024-01-25T02:18:42;3.72;;;1.20;;
80539;SDS011;69869;48.036;15.780;2024-01-25T02:21:08;3.45;;;1.20;;
80539;SDS011;69869;48.036;15.780;2024-01-25T02:23:34;1.98;;;1.15;;
80539;SDS011;69869;48.036;15.780;2024-01-25T02:25:59;2.80;;;1.15;;
80539;SDS011;69869;48.036;15.780;2024-01-25T02:28:25;2.17;;;0.90;;
80539;SDS011;69869;48.036;15.780;2024-01-25T02:30:51;4.10;;;0.90;;
80539;SDS011;69869;48.036;15.780;2024-01-25T02:33:17;4.45;;;1.55;;
80539;SDS011;69869;48.036;15.780;2024-01-25T02:35:42;2.00;;;0.90;;
80539;SDS011;69869;48.036;15.780;2024-01-25T02:38:08;1.67;;;0.90;;
80539;SDS011;69869;48.036;15.780;2024-01-25T02:40:33;2.95;;;1.00;;
80539;SDS011;69869;48.036;15.780;2024-01-25T02:42:59;2.88;;;1.20;;
80539;SDS011;69869;48.036;15.780;2024-01-25T02:45:25;1.90;;;1.00;;
80539;SDS011;69869;48.036;15.780;2024-01-25T02:47:50;3.22;;;1.10;;
80539;SDS011;69869;48.036;15.780;2024-01-25T02:50:16;2.08;;;0.90;;
80539;SDS011;69869;48.036;15.780;2024-01-25T02:52:42;1.58;;;0.95;;
80539;SDS011;69869;48.036;15.780;2024-01-25T02:55:07;2.58;;;1.00;;
80539;SDS011;69869;48.036;15.780;2024-01-25T02:57:33;2.97;;;0.93;;
80539;SDS011;69869;48.036;15.780;2024-01-25T02:59:59;2.90;;;1.20;;
80539;SDS011;69869;48.036;15.780;2024-01-25T03:02:25;3.10;;;1.10;;
80539;SDS011;69869;48.036;15.780;2024-01-25T03:04:50;2.38;;;1.20;;
80539;SDS011;69869;48.036;15.780;2024-01-25T03:07:16;2.95;;;0.93;;
80539;SDS011;69869;48.036;15.780;2024-01-25T03:09:42;2.17;;;1.10;;
80539;SDS011;69869;48.036;15.780;2024-01-25T03:12:10;2.67;;;1.13;;
80539;SDS011;69869;48.036;15.780;2024-01-25T03:14:36;2.53;;;1.02;;
80539;SDS011;69869;48.036;15.780;2024-01-25T03:17:01;1.77;;;0.90;;
80539;SDS011;69869;48.036;15.780;2024-01-25T03:19:27;1.60;;;1.02;;
80539;SDS011;69869;48.036;15.780;2024-01-25T03:21:53;1.75;;;1.00;;
80539;SDS011;69869;48.036;15.780;2024-01-25T03:24:19;4.13;;;1.00;;
80539;SDS011;69869;48.036;15.780;2024-01-25T03:26:49;4.03;;;1.10;;
80539;SDS011;69869;48.036;15.780;2024-01-25T03:29:15;1.40;;;0.88;;
80539;SDS011;69869;48.036;15.780;2024-01-25T03:31:40;2.90;;;1.10;;
80539;SDS011;69869;48.036;15.780;2024-01-25T03:34:06;1.60;;;0.85;;
80539;SDS011;69869;48.036;15.780;2024-01-25T03:36:32;1.98;;;1.10;;
80539;SDS011;69869;48.036;15.780;2024-01-25T03:38:58;2.95;;;1.08;;
80539;SDS011;69869;48.036;15.780;2024-01-25T03:41:24;2.10;;;0.95;;
80539;SDS011;69869;48.036;15.780;2024-01-25T03:43:50;2.00;;;0.90;;
80539;SDS011;69869;48.036;15.780;2024-01-25T03:46:16;5.22;;;1.02;;
80539;SDS011;69869;48.036;15.780;2024-01-25T03:48:42;1.95;;;0.98;;
80539;SDS011;69869;48.036;15.780;2024-01-25T03:51:08;2.50;;;1.10;;
80539;SDS011;69869;48.036;15.780;2024-01-25T03:53:34;4.40;;;1.75;;
80539;SDS011;69869;48.036;15.780;2024-01-25T03:56:00;3.58;;;1.05;;
80539;SDS011;69869;48.036;15.780;2024-01-25T03:58:25;2.03;;;0.95;;
80539;SDS011;69869;48.036;15.780;2024-01-25T04:00:51;2.42;;;1.10;;
80539;SDS011;69869;48.036;15.780;2024-01-25T04:03:17;2.75;;;1.10;;
80539;SDS011;69869;48.036;15.780;2024-01-25T04:05:43;1.83;;;1.02;;
80539;SDS011;69869;48.036;15.780;2024-01-25T04:08:08;2.17;;;0.98;;
80539;SDS011;69869;48.036;15.780;2024-01-25T04:10:34;3.03;;;1.00;;
80539;SDS011;69869;48.036;15.780;2024-01-25T04:13:00;3.53;;;1.20;;
80539;SDS011;69869;48.036;15.780;2024-01-25T04:15:26;2.63;;;1.02;;
80539;SDS011;69869;48.036;15.780;2024-01-25T04:17:52;2.00;;;0.93;;
80539;SDS011;69869;48.036;15.780;2024-01-25T04:20:21;2.65;;;0.93;;
80539;SDS011;69869;48.036;15.780;2024-01-25T04:22:47;2.67;;;1.13;;
80539;SDS011;69869;48.036;15.780;2024-01-25T04:25:12;2.63;;;1.00;;
80539;SDS011;69869;48.036;15.780;2024-01-25T04:27:38;2.92;;;0.95;;
80539;SDS011;69869;48.036;15.780;2024-01-25T04:30:04;2.65;;;1.10;;
80539;SDS011;69869;48.036;15.780;2024-01-25T04:32:31;1.98;;;1.00;;
80539;SDS011;69869;48.036;15.780;2024-01-25T04:34:56;2.47;;;0.98;;
80539;SDS011;69869;48.036;15.780;2024-01-25T04:37:22;2.55;;;0.90;;
80539;SDS011;69869;48.036;15.780;2024-01-25T04:39:47;1.92;;;1.10;;
80539;SDS011;69869;48.036;15.780;2024-01-25T04:42:13;2.22;;;0.90;;
80539;SDS011;69869;48.036;15.780;2024-01-25T04:44:39;2.05;;;0.90;;
80539;SDS011;69869;48.036;15.780;2024-01-25T04:47:05;2.30;;;1.10;;
80539;SDS011;69869;48.036;15.780;2024-01-25T04:49:34;1.45;;;0.95;;
80539;SDS011;69869;48.036;15.780;2024-01-25T04:51:59;3.47;;;1.20;;
80539;SDS011;69869;48.036;15.780;2024-01-25T04:54:25;3.28;;;1.30;;
80539;SDS011;69869;48.036;15.780;2024-01-25T04:56:51;4.25;;;1.30;;
80539;SDS011;69869;48.036;15.780;2024-01-25T04:59:16;3.20;;;1.15;;
80539;SDS011;69869;48.036;15.780;2024-01-25T05:01:42;3.13;;;1.10;;
80539;SDS011;69869;48.036;15.780;2024-01-25T05:04:08;2.75;;;1.10;;
80539;SDS011;69869;48.036;15.780;2024-01-25T05:06:33;2.38;;;1.10;;
80539;SDS011;69869;48.036;15.780;2024-01-25T05:08:59;2.50;;;0.90;;
80539;SDS011;69869;48.036;15.780;2024-01-25T05:11:25;2.50;;;1.10;;
80539;SDS011;69869;48.036;15.780;2024-01-25T05:13:50;3.60;;;1.05;;
80539;SDS011;69869;48.036;15.780;2024-01-25T05:16:16;3.40;;;1.20;;
80539;SDS011;69869;48.036;15.780;2024-01-25T05:18:41;2.33;;;0.95;;
80539;SDS011;69869;48.036;15.780;2024-01-25T05:21:07;4.50;;;1.30;;
80539;SDS011;69869;48.036;15.780;2024-01-25T05:23:33;2.70;;;1.00;;
80539;SDS011;69869;48.036;15.780;2024-01-25T05:25:58;2.70;;;1.20;;
80539;SDS011;69869;48.036;15.780;2024-01-25T05:28:24;2.47;;;1.10;;
80539;SDS011;69869;48.036;15.780;2024-01-25T05:30:50;2.00;;;1.08;;
80539;SDS011;69869;48.036;15.780;2024-01-25T05:33:15;3.80;;;1.27;;
80539;SDS011;69869;48.036;15.780;2024-01-25T05:35:41;1.98;;;1.13;;
80539;SDS011;69869;48.036;15.780;2024-01-25T05:38:07;2.28;;;0.90;;
80539;SDS011;69869;48.036;15.780;2024-01-25T05:40:32;1.73;;;1.08;;
80539;SDS011;69869;48.036;15.780;2024-01-25T05:42:59;3.38;;;1.52;;
80539;SDS011;69869;48.036;15.780;2024-01-25T05:45:24;2.08;;;1.08;;
80539;SDS011;69869;48.036;15.780;2024-01-25T05:47:51;5.72;;;1.25;;
80539;SDS011;69869;48.036;15.780;2024-01-25T05:50:17;2.47;;;1.10;;
80539;SDS011;69869;48.036;15.780;2024-01-25T05:52:43;2.78;;;1.05;;
80539;SDS011;69869;48.036;15.780;2024-01-25T05:55:08;2.95;;;1.30;;
80539;SDS011;69869;48.036;15.780;2024-01-25T05:57:35;4.78;;;1.50;;
80539;SDS011;69869;48.036;15.780;2024-01-25T06:00:02;4.25;;;1.27;;
80539;SDS011;69869;48.036;15.780;2024-01-25T06:02:28;4.07;;;1.40;;
80539;SDS011;69869;48.036;15.780;2024-01-25T06:04:53;2.95;;;1.23;;
80539;SDS011;69869;48.036;15.780;2024-01-25T06:07:20;3.65;;;1.40;;
80539;SDS011;69869;48.036;15.780;2024-01-25T06:09:45;6.43;;;1.50;;
80539;SDS011;69869;48.036;15.780;2024-01-25T06:12:11;4.25;;;1.13;;
80539;SDS011;69869;48.036;15.780;2024-01-25T06:14:37;3.85;;;1.20;;
80539;SDS011;69869;48.036;15.780;2024-01-25T06:17:03;3.20;;;1.33;;
80539;SDS011;69869;48.036;15.780;2024-01-25T06:19:28;3.00;;;1.35;;
80539;SDS011;69869;48.036;15.780;2024-01-25T06:21:54;4.68;;;1.35;;
80539;SDS011;69869;48.036;15.780;2024-01-25T06:24:20;2.88;;;1.35;;
80539;SDS011;69869;48.036;15.780;2024-01-25T06:26:45;3.80;;;1.50;;
80539;SDS011;69869;48.036;15.780;2024-01-25T06:29:11;4.55;;;1.55;;
80539;SDS011;69869;48.036;15.780;2024-01-25T06:31:43;2.45;;;1.10;;
80539;SDS011;69869;48.036;15.780;2024-01-25T06:34:09;2.88;;;1.50;;
80539;SDS011;69869;48.036;15.780;2024-01-25T06:36:35;3.70;;;1.17;;
80539;SDS011;69869;48.036;15.780;2024-01-25T06:39:00;4.47;;;1.30;;
80539;SDS011;69869;48.036;15.780;2024-01-25T06:41:26;5.05;;;1.38;;
80539;SDS011;69869;48.036;15.780;2024-01-25T06:43:51;2.80;;;1.30;;
80539;SDS011;69869;48.036;15.780;2024-01-25T06:46:17;3.17;;;1.30;;
80539;SDS011;69869;48.036;15.780;2024-01-25T06:48:43;2.15;;;1.10;;
80539;SDS011;69869;48.036;15.780;2024-01-25T06:51:08;3.70;;;1.20;;
80539;SDS011;69869;48.036;15.780;2024-01-25T06:53:34;2.95;;;1.00;;
80539;SDS011;69869;48.036;15.780;2024-01-25T06:56:00;3.05;;;1.17;;
80539;SDS011;69869;48.036;15.780;2024-01-25T06:58:25;3.72;;;1.30;;
80539;SDS011;69869;48.036;15.780;2024-01-25T07:00:51;5.38;;;1.40;;
80539;SDS011;69869;48.036;15.780;2024-01-25T07:03:17;3.50;;;1.63;;
80539;SDS011;69869;48.036;15.780;2024-01-25T07:05:44;2.67;;;1.15;;
80539;SDS011;69869;48.036;15.780;2024-01-25T07:08:09;4.15;;;1.42;;
80539;SDS011;69869;48.036;15.780;2024-01-25T07:10:38;3.13;;;1.17;;
80539;SDS011;69869;48.036;15.780;2024-01-25T07:13:04;3.22;;;1.38;;
80539;SDS011;69869;48.036;15.780;2024-01-25T07:15:30;4.20;;;1.20;;
80539;SDS011;69869;48.036;15.780;2024-01-25T07:17:56;2.28;;;1.17;;
80539;SDS011;69869;48.036;15.780;2024-01-25T07:20:21;2.88;;;1.40;;
80539;SDS011;69869;48.036;15.780;2024-01-25T07:22:47;4.93;;;1.30;;
80539;SDS011;69869;48.036;15.780;2024-01-25T07:25:12;2.80;;;1.27;;
80539;SDS011;69869;48.036;15.780;2024-01-25T07:27:38;4.45;;;1.40;;
80539;SDS011;69869;48.036;15.780;2024-01-25T07:30:04;2.40;;;1.10;;
80539;SDS011;69869;48.036;15.780;2024-01-25T07:32:30;3.38;;;1.35;;
80539;SDS011;69869;48.036;15.780;2024-01-25T07:34:57;1.67;;;1.02;;
80539;SDS011;69869;48.036;15.780;2024-01-25T07:37:23;3.22;;;1.20;;
80539;SDS011;69869;48.036;15.780;2024-01-25T07:39:49;4.30;;;1.20;;
80539;SDS011;69869;48.036;15.780;2024-01-25T07:42:14;4.40;;;1.40;;
80539;SDS011;69869;48.036;15.780;2024-01-25T07:44:40;2.95;;;1.20;;
80539;SDS011;69869;48.036;15.780;2024-01-25T07:47:05;3.60;;;1.40;;
80539;SDS011;69869;48.036;15.780;2024-01-25T07:49:31;2.17;;;1.08;;
80539;SDS011;69869;48.036;15.780;2024-01-25T07:51:57;4.55;;;1.50;;
80539;SDS011;69869;48.036;15.780;2024-01-25T07:54:22;4.60;;;1.65;;
80539;SDS011;69869;48.036;15.780;2024-01-25T07:56:49;2.83;;;1.20;;
80539;SDS011;69869;48.036;15.780;2024-01-25T07:59:14;2.35;;;1.13;;
80539;SDS011;69869;48.036;15.780;2024-01-25T08:01:40;3.05;;;1.35;;
80539;SDS011;69869;48.036;15.780;2024-01-25T08:04:05;3.05;;;1.20;;
80539;SDS011;69869;48.036;15.780;2024-01-25T08:06:31;3.50;;;1.50;;
80539;SDS011;69869;48.036;15.780;2024-01-25T08:08:57;4.15;;;1.30;;
80539;SDS011;69869;48.036;15.780;2024-01-25T08:11:22;3.45;;;1.50;;
80539;SDS011;69869;48.036;15.780;2024-01-25T08:13:49;6.38;;;1.83;;
80539;SDS011;69869;48.036;15.780;2024-01-25T08:16:14;4.57;;;1.50;;
80539;SDS011;69869;48.036;15.780;2024-01-25T08:18:44;3.50;;;1.50;;
80539;SDS011;69869;48.036;15.780;2024-01-25T08:21:11;3.72;;;1.38;;
80539;SDS011;69869;48.036;15.780;2024-01-25T08:23:37;4.57;;;1.60;;
80539;SDS011;69869;48.036;15.780;2024-01-25T08:26:04;3.25;;;1.60;;
80539;SDS011;69869;48.036;15.780;2024-01-25T08:28:30;2.92;;;1.30;;
80539;SDS011;69869;48.036;15.780;2024-01-25T08:30:55;3.60;;;1.40;;
80539;SDS011;69869;48.036;15.780;2024-01-25T08:33:22;3.10;;;1.30;;
80539;SDS011;69869;48.036;15.780;2024-01-25T08:35:49;3.15;;;1.40;;
80539;SDS011;69869;48.036;15.780;2024-01-25T08:38:15;2.35;;;1.35;;
80539;SDS011;69869;48.036;15.780;2024-01-25T08:40:40;4.60;;;1.60;;
80539;SDS011;69869;48.036;15.780;2024-01-25T08:43:06;3.63;;;1.45;;
80539;SDS011;69869;48.036;15.780;2024-01-25T08:45:32;3.47;;;1.45;;
80539;SDS011;69869;48.036;15.780;2024-01-25T08:47:58;3.10;;;1.30;;
80539;SDS011;69869;48.036;15.780;2024-01-25T08:50:25;2.78;;;1.38;;
80539;SDS011;69869;48.036;15.780;2024-01-25T08:52:50;4.82;;;1.42;;
80539;SDS011;69869;48.036;15.780;2024-01-25T08:55:16;3.95;;;1.58;;
80539;SDS011;69869;48.036;15.780;2024-01-25T08:57:42;3.97;;;1.38;;
80539;SDS011;69869;48.036;15.780;2024-01-25T09:00:08;5.20;;;1.60;;
80539;SDS011;69869;48.036;15.780;2024-01-25T09:02:37;2.83;;;1.38;;
80539;SDS011;69869;48.036;15.780;2024-01-25T09:05:04;3.17;;;1.42;;
80539;SDS011;69869;48.036;15.780;2024-01-25T09:07:30;3.35;;;1.30;;
80539;SDS011;69869;48.036;15.780;2024-01-25T09:09:56;5.25;;;1.60;;
80539;SDS011;69869;48.036;15.780;2024-01-25T09:12:21;4.18;;;1.48;;
80539;SDS011;69869;48.036;15.780;2024-01-25T09:14:47;4.25;;;1.50;;
80539;SDS011;69869;48.036;15.780;2024-01-25T09:17:13;6.15;;;1.75;;
80539;SDS011;69869;48.036;15.780;2024-01-25T09:19:46;3.40;;;1.40;;
80539;SDS011;69869;48.036;15.780;2024-01-25T09:22:13;3.35;;;1.50;;
80539;SDS011;69869;48.036;15.780;2024-01-25T09:24:41;3.83;;;1.48;;
80539;SDS011;69869;48.036;15.780;2024-01-25T09:27:07;2.92;;;1.17;;
80539;SDS011;69869;48.036;15.780;2024-01-25T09:29:33;4.18;;;1.50;;
80539;SDS011;69869;48.036;15.780;2024-01-25T09:31:58;4.10;;;1.67;;
80539;SDS011;69869;48.036;15.780;2024-01-25T09:34:24;4.95;;;1.52;;
80539;SDS011;69869;48.036;15.780;2024-01-25T09:36:50;4.20;;;1.27;;
80539;SDS011;69869;48.036;15.780;2024-01-25T09:39:16;5.75;;;1.73;;
80539;SDS011;69869;48.036;15.780;2024-01-25T09:41:42;3.55;;;1.40;;
80539;SDS011;69869;48.036;15.780;2024-01-25T09:44:08;2.58;;;1.45;;
80539;SDS011;69869;48.036;15.780;2024-01-25T09:46:34;4.53;;;1.50;;
80539;SDS011;69869;48.036;15.780;2024-01-25T09:49:00;4.28;;;1.60;;
80539;SDS011;69869;48.036;15.780;2024-01-25T09:51:30;3.58;;;1.50;;
80539;SDS011;69869;48.036;15.780;2024-01-25T09:54:03;2.83;;;1.40;;
80539;SDS011;69869;48.036;15.780;2024-01-25T09:56:31;2.67;;;1.17;;
80539;SDS011;69869;48.036;15.780;2024-01-25T09:58:57;3.63;;;1.33;;
80539;SDS011;69869;48.036;15.780;2024-01-25T10:01:24;3.90;;;1.35;;
80539;SDS011;69869;48.036;15.780;2024-01-25T10:03:50;4.43;;;1.45;;
80539;SDS011;69869;48.036;15.780;2024-01-25T10:06:16;3.80;;;1.30;;
80539;SDS011;69869;48.036;15.780;2024-01-25T10:08:42;4.03;;;1.58;;
80539;SDS011;69869;48.036;15.780;2024-01-25T10:11:08;3.95;;;1.50;;
80539;SDS011;69869;48.036;15.780;2024-01-25T10:13:49;3.20;;;1.38;;
80539;SDS011;69869;48.036;15.780;2024-01-25T10:16:19;3.50;;;1.20;;
80539;SDS011;69869;48.036;15.780;2024-01-25T10:18:48;3.65;;;1.67;;
80539;SDS011;69869;48.036;15.780;2024-01-25T10:21:15;4.13;;;1.55;;
80539;SDS011;69869;48.036;15.780;2024-01-25T10:23:43;2.25;;;1.23;;
80539;SDS011;69869;48.036;15.780;2024-01-25T10:26:10;3.17;;;1.42;;
80539;SDS011;69869;48.036;15.780;2024-01-25T10:28:36;3.67;;;1.40;;
80539;SDS011;69869;48.036;15.780;2024-01-25T10:31:01;3.15;;;1.73;;
80539;SDS011;69869;48.036;15.780;2024-01-25T10:33:29;4.47;;;1.65;;
80539;SDS011;69869;48.036;15.780;2024-01-25T10:35:55;4.72;;;1.50;;
80539;SDS011;69869;48.036;15.780;2024-01-25T10:38:30;3.80;;;1.42;;
80539;SDS011;69869;48.036;15.780;2024-01-25T10:40:58;3.42;;;1.40;;
80539;SDS011;69869;48.036;15.780;2024-01-25T10:43:26;3.65;;;1.38;;
80539;SDS011;69869;48.036;15.780;2024-01-25T10:45:52;2.75;;;1.25;;
80539;SDS011;69869;48.036;15.780;2024-01-25T10:48:21;3.35;;;1.55;;
80539;SDS011;69869;48.036;15.780;2024-01-25T10:50:47;3.63;;;1.60;;
80539;SDS011;69869;48.036;15.780;2024-01-25T10:53:13;3.65;;;1.30;;
80539;SDS011;69869;48.036;15.780;2024-01-25T10:55:40;2.47;;;1.20;;
80539;SDS011;69869;48.036;15.780;2024-01-25T10:58:07;4.32;;;1.58;;
80539;SDS011;69869;48.036;15.780;2024-01-25T11:00:35;4.32;;;1.50;;
80539;SDS011;69869;48.036;15.780;2024-01-25T11:03:02;4.10;;;1.70;;
80539;SDS011;69869;48.036;15.780;2024-01-25T11:05:29;2.65;;;1.40;;
80539;SDS011;69869;48.036;15.780;2024-01-25T11:07:55;4.70;;;1.60;;
80539;SDS011;69869;48.036;15.780;2024-01-25T11:10:21;4.15;;;1.50;;
80539;SDS011;69869;48.036;15.780;2024-01-25T11:12:59;3.72;;;1.50;;
80539;SDS011;69869;48.036;15.780;2024-01-25T11:17:58;3.97;;;1.67;;
80539;SDS011;69869;48.036;15.780;2024-01-25T11:20:31;4.18;;;1.50;;
80539;SDS011;69869;48.036;15.780;2024-01-25T11:22:59;4.25;;;1.60;;
80539;SDS011;69869;48.036;15.780;2024-01-25T11:25:36;4.13;;;1.73;;
80539;SDS011;69869;48.036;15.780;2024-01-25T11:28:03;2.60;;;1.40;;
80539;SDS011;69869;48.036;15.780;2024-01-25T11:30:31;4.88;;;1.55;;
80539;SDS011;69869;48.036;15.780;2024-01-25T11:32:58;3.42;;;1.38;;
80539;SDS011;69869;48.036;15.780;2024-01-25T11:35:24;3.60;;;1.52;;
80539;SDS011;69869;48.036;15.780;2024-01-25T11:37:50;3.78;;;1.40;;
80539;SDS011;69869;48.036;15.780;2024-01-25T11:40:19;4.10;;;1.48;;
80539;SDS011;69869;48.036;15.780;2024-01-25T11:42:47;4.05;;;1.58;;
80539;SDS011;69869;48.036;15.780;2024-01-25T11:45:14;2.35;;;1.20;;
80539;SDS011;69869;48.036;15.780;2024-01-25T11:47:41;3.55;;;1.20;;
80539;SDS011;69869;48.036;15.780;2024-01-25T11:50:08;3.85;;;1.50;;
80539;SDS011;69869;48.036;15.780;2024-01-25T11:52:36;3.38;;;1.35;;
80539;SDS011;69869;48.036;15.780;2024-01-25T11:55:03;3.03;;;1.23;;
80539;SDS011;69869;48.036;15.780;2024-01-25T11:57:30;4.32;;;1.48;;
80539;SDS011;69869;48.036;15.780;2024-01-25T12:00:09;3.35;;;1.30;;
80539;SDS011;69869;48.036;15.780;2024-01-25T12:02:38;2.33;;;1.35;;
80539;SDS011;69869;48.036;15.780;2024-01-25T12:05:04;2.63;;;1.30;;
80539;SDS011;69869;48.036;15.780;2024-01-25T12:07:31;2.50;;;1.27;;
80539;SDS011;69869;48.036;15.780;2024-01-25T12:10:07;2.63;;;1.20;;
80539;SDS011;69869;48.036;15.780;2024-01-25T12:12:37;5.40;;;1.60;;
80539;SDS011;69869;48.036;15.780;2024-01-25T12:15:04;6.55;;;1.88;;
80539;SDS011;69869;48.036;15.780;2024-01-25T12:17:31;3.35;;;1.90;;
80539;SDS011;69869;48.036;15.780;2024-01-25T12:19:57;3.38;;;1.65;;
80539;SDS011;69869;48.036;15.780;2024-01-25T12:22:26;3.83;;;1.70;;
80539;SDS011;69869;48.036;15.780;2024-01-25T12:24:53;4.07;;;1.55;;
80539;SDS011;69869;48.036;15.780;2024-01-25T12:27:23;6.00;;;1.60;;
80539;SDS011;69869;48.036;15.780;2024-01-25T12:29:50;4.13;;;1.65;;
80539;SDS011;69869;48.036;15.780;2024-01-25T12:32:18;4.45;;;1.60;;
80539;SDS011;69869;48.036;15.780;2024-01-25T12:34:57;4.35;;;1.73;;
80539;SDS011;69869;48.036;15.780;2024-01-25T12:37:25;4.65;;;1.85;;
80539;SDS011;69869;48.036;15.780;2024-01-25T12:39:52;4.68;;;1.60;;
80539;SDS011;69869;48.036;15.780;2024-01-25T12:42:19;3.75;;;1.58;;
80539;SDS011;69869;48.036;15.780;2024-01-25T12:44:45;6.68;;;1.83;;
80539;SDS011;69869;48.036;15.780;2024-01-25T12:47:11;3.35;;;1.50;;
80539;SDS011;69869;48.036;15.780;2024-01-25T12:49:40;6.18;;;1.50;;
80539;SDS011;69869;48.036;15.780;2024-01-25T12:52:08;6.40;;;1.52;;
80539;SDS011;69869;48.036;15.780;2024-01-25T12:54:38;3.33;;;1.55;;
80539;SDS011;69869;48.036;15.780;2024-01-25T12:57:04;4.47;;;1.50;;
80539;SDS011;69869;48.036;15.780;2024-01-25T12:59:34;3.40;;;1.52;;
80539;SDS011;69869;48.036;15.780;2024-01-25T13:02:00;2.88;;;1.27;;
80539;SDS011;69869;48.036;15.780;2024-01-25T13:04:26;5.75;;;1.80;;
80539;SDS011;69869;48.036;15.780;2024-01-25T13:06:52;4.50;;;1.63;;
80539;SDS011;69869;48.036;15.780;2024-01-25T13:09:20;3.80;;;1.50;;
80539;SDS011;69869;48.036;15.780;2024-01-25T13:11:46;3.10;;;1.48;;
80539;SDS011;69869;48.036;15.780;2024-01-25T13:14:12;4.50;;;1.70;;
80539;SDS011;69869;48.036;15.780;2024-01-25T13:16:38;2.58;;;1.20;;
80539;SDS011;69869;48.036;15.780;2024-01-25T13:19:04;3.25;;;1.33;;
80539;SDS011;69869;48.036;15.780;2024-01-25T13:21:29;5.03;;;1.60;;
80539;SDS011;69869;48.036;15.780;2024-01-25T13:23:56;5.28;;;1.50;;
80539;SDS011;69869;48.036;15.780;2024-01-25T13:26:22;3.05;;;1.40;;
80539;SDS011;69869;48.036;15.780;2024-01-25T13:28:47;3.83;;;1.55;;
80539;SDS011;69869;48.036;15.780;2024-01-25T13:31:13;4.43;;;1.80;;
80539;SDS011;69869;48.036;15.780;2024-01-25T13:33:38;5.05;;;1.95;;
80539;SDS011;69869;48.036;15.780;2024-01-25T13:36:04;3.78;;;1.75;;
80539;SDS011;69869;48.036;15.780;2024-01-25T13:38:33;4.20;;;1.60;;
80539;SDS011;69869;48.036;15.780;2024-01-25T13:40:59;3.22;;;1.60;;
80539;SDS011;69869;48.036;15.780;2024-01-25T13:43:25;4.20;;;1.70;;
80539;SDS011;69869;48.036;15.780;2024-01-25T13:45:51;4.30;;;2.05;;
80539;SDS011;69869;48.036;15.780;2024-01-25T13:48:16;4.03;;;1.70;;
80539;SDS011;69869;48.036;15.780;2024-01-25T13:50:44;3.83;;;1.77;;
80539;SDS011;69869;48.036;15.780;2024-01-25T13:53:09;3.92;;;1.80;;
80539;SDS011;69869;48.036;15.780;2024-01-25T13:55:35;4.88;;;1.80;;
80539;SDS011;69869;48.036;15.780;2024-01-25T13:58:01;3.55;;;1.70;;
80539;SDS011;69869;48.036;15.780;2024-01-25T14:00:27;3.33;;;1.65;;
80539;SDS011;69869;48.036;15.780;2024-01-25T14:02:53;2.70;;;1.65;;
80539;SDS011;69869;48.036;15.780;2024-01-25T14:05:19;3.00;;;1.75;;
80539;SDS011;69869;48.036;15.780;2024-01-25T14:07:44;3.67;;;1.73;;
80539;SDS011;69869;48.036;15.780;2024-01-25T14:10:10;4.07;;;1.70;;
80539;SDS011;69869;48.036;15.780;2024-01-25T14:12:36;2.67;;;1.50;;
80539;SDS011;69869;48.036;15.780;2024-01-25T14:15:01;3.45;;;1.50;;
80539;SDS011;69869;48.036;15.780;2024-01-25T14:17:27;3.33;;;1.65;;
80539;SDS011;69869;48.036;15.780;2024-01-25T14:19:53;3.75;;;1.70;;
80539;SDS011;69869;48.036;15.780;2024-01-25T14:22:18;3.67;;;1.70;;
80539;SDS011;69869;48.036;15.780;2024-01-25T14:24:44;2.85;;;1.40;;
80539;SDS011;69869;48.036;15.780;2024-01-25T14:27:11;4.13;;;1.80;;
80539;SDS011;69869;48.036;15.780;2024-01-25T14:29:37;2.70;;;1.48;;
80539;SDS011;69869;48.036;15.780;2024-01-25T14:32:02;6.45;;;1.90;;